Time;durP1;ratioP1;P1;durP2;ratioP2;P2;SDS_P1;SDS_P2;PMS_P1;PMS_P2;Temp;Humidity;BMP_temperature;BMP_pressure;BME280_temperature;BME280_humidity;BME280_pressure;Samples;Min_cycle;Max_cycle;Signal;HPM_P1;HPM_P2
2021/12/05 00:23:40;;;;;;;31.70;15.50;;;;;;;5.30;56.58;97577.47;4421624;32;20109;-79
2021/12/05 00:26:10;;;;;;;32.60;14.70;;;;;;;5.31;56.49;97576.56;4421517;32;20102;-79
2021/12/05 01:15:35;;;;;;;34.30;16.42;;;;;;;5.22;57.89;97571.81;4393081;32;20520;-83
2021/12/05 01:20:29;;;;;;;36.63;17.65;;;;;;;5.28;58.57;97574.09;4423590;32;20145;-82
2021/12/05 01:23:06;;;;;;;37.45;17.95;;;;;;;5.23;58.57;97567.44;4460362;32;20447;-83
2021/12/05 01:25:42;;;;;;;39.45;17.52;;;;;;;5.23;58.62;97565.66;4474607;32;20084;-82
2021/12/05 01:36:29;;;;;;;36.38;17.10;;;;;;;5.12;59.22;97560.19;4473535;32;20103;-81
2021/12/05 01:39:20;;;;;;;37.33;18.15;;;;;;;5.18;59.28;97552.03;4487660;32;20119;-83
2021/12/05 02:29:42;;;;;;;40.40;19.60;;;;;;;5.12;60.59;97505.38;4487291;32;20461;-76
2021/12/05 02:42:53;;;;;;;37.13;18.48;;;;;;;5.19;60.57;97500.66;4422653;32;20094;-76
2021/12/05 02:45:19;;;;;;;35.80;18.27;;;;;;;5.24;60.67;97494.25;4422683;32;20137;-76
2021/12/05 02:47:49;;;;;;;38.20;18.75;;;;;;;5.12;60.72;97500.16;4422763;32;20238;-75
2021/12/05 02:50:17;;;;;;;42.97;19.98;;;;;;;5.11;61.06;97504.50;4422852;32;20116;-75
2021/12/05 02:52:43;;;;;;;41.22;20.85;;;;;;;5.20;60.81;97494.53;4422742;32;20120;-76
2021/12/05 02:55:25;;;;;;;43.75;20.70;;;;;;;5.26;60.67;97499.41;4422038;32;20106;-76
2021/12/05 02:57:58;;;;;;;39.55;20.17;;;;;;;5.15;60.69;97492.13;4422740;32;20292;-76
2021/12/05 03:03:20;;;;;;;37.33;19.15;;;;;;;5.15;60.81;97502.56;4422812;32;20164;-76
2021/12/05 03:05:51;;;;;;;38.90;18.95;;;;;;;5.14;60.96;97508.75;4422439;32;20124;-75
2021/12/05 03:08:17;;;;;;;38.58;18.95;;;;;;;5.12;61.09;97498.38;4422599;32;20098;-78
2021/12/05 03:10:43;;;;;;;35.08;18.62;;;;;;;5.17;60.98;97495.50;4422637;32;20120;-78
2021/12/05 03:13:09;;;;;;;34.70;18.10;;;;;;;5.16;61.03;97506.88;4422430;32;20140;-78
2021/12/05 03:15:34;;;;;;;39.33;18.67;;;;;;;5.23;60.84;97497.78;4422620;32;20149;-78
2021/12/05 03:18:00;;;;;;;37.50;18.80;;;;;;;5.26;60.73;97496.78;4422495;32;20093;-78
2021/12/05 03:20:26;;;;;;;40.08;19.58;;;;;;;5.27;60.66;97501.94;4469649;32;20162;-78
2021/12/05 03:22:51;;;;;;;40.10;19.62;;;;;;;5.25;60.45;97502.91;4486748;32;20181;-78
2021/12/05 03:25:17;;;;;;;37.42;18.40;;;;;;;5.13;60.40;97502.66;4486633;32;20085;-78
2021/12/05 03:27:43;;;;;;;41.28;19.55;;;;;;;5.15;60.61;97496.53;4486700;32;20429;-78
2021/12/05 03:30:11;;;;;;;41.65;20.50;;;;;;;5.21;60.63;97486.56;4459498;32;20077;-78
2021/12/05 03:32:37;;;;;;;37.83;18.92;;;;;;;5.22;60.59;97496.09;4486672;32;20108;-78
2021/12/05 03:35:04;;;;;;;38.22;20.15;;;;;;;5.18;60.55;97493.75;4486938;32;20436;-78
2021/12/05 03:37:30;;;;;;;38.95;18.87;;;;;;;5.15;60.54;97506.97;4472637;32;20140;-78
2021/12/05 03:39:55;;;;;;;38.95;19.92;;;;;;;5.22;60.39;97501.34;4459244;32;20084;-78
2021/12/05 03:42:21;;;;;;;37.10;19.62;;;;;;;5.18;60.63;97512.03;4486517;32;20124;-78
2021/12/05 03:44:46;;;;;;;39.50;19.15;;;;;;;5.21;60.58;97507.47;4486579;32;20107;-78
2021/12/05 03:47:12;;;;;;;40.28;20.25;;;;;;;5.23;60.33;97510.84;4472046;32;20379;-78
2021/12/05 03:49:38;;;;;;;39.92;20.35;;;;;;;5.21;60.61;97509.25;4472164;32;20121;-78
2021/12/05 03:52:09;;;;;;;42.03;20.00;;;;;;;5.29;60.40;97514.88;4486523;32;20450;-78
2021/12/05 03:54:35;;;;;;;41.95;20.65;;;;;;;5.30;60.13;97503.53;4486333;32;20100;-78
2021/12/05 03:57:02;;;;;;;37.53;19.05;;;;;;;5.30;60.21;97500.91;4472048;32;20103;-78
2021/12/05 03:59:28;;;;;;;41.05;19.25;;;;;;;5.31;60.30;97502.59;4486321;32;20534;-78
2021/12/05 04:01:55;;;;;;;40.38;19.73;;;;;;;5.34;60.17;97504.22;4471966;32;20089;-78
2021/12/05 04:04:21;;;;;;;36.63;19.70;;;;;;;5.35;60.17;97504.12;4472004;32;20092;-78
2021/12/05 04:06:46;;;;;;;38.92;19.60;;;;;;;5.43;60.07;97498.50;4459137;32;20103;-78
2021/12/05 04:09:13;;;;;;;34.67;18.40;;;;;;;5.47;60.03;97503.47;4461129;32;20111;-78
2021/12/05 04:11:45;;;;;;;36.38;17.92;;;;;;;5.37;60.02;97499.69;4488463;32;20092;-78
2021/12/05 04:14:14;;;;;;;38.28;18.33;;;;;;;5.39;59.93;97505.66;4488518;32;20084;-78
2021/12/05 04:16:40;;;;;;;37.45;19.52;;;;;;;5.36;59.86;97505.81;4474253;32;20144;-78
2021/12/05 04:19:06;;;;;;;39.95;19.20;;;;;;;5.37;59.88;97493.59;4473979;32;20459;-78
2021/12/05 04:21:35;;;;;;;35.72;18.35;;;;;;;5.38;59.74;97490.91;4474081;32;20160;-78
2021/12/05 04:24:02;;;;;;;36.80;18.12;;;;;;;5.43;59.74;97486.28;4474472;32;20438;-78
2021/12/05 04:26:27;;;;;;;40.03;20.08;;;;;;;5.44;59.68;97492.34;4488012;32;20109;-78
2021/12/05 04:28:53;;;;;;;36.85;18.27;;;;;;;5.28;59.77;97487.09;4488156;32;20072;-78
2021/12/05 04:31:21;;;;;;;38.80;19.17;;;;;;;5.39;59.95;97499.56;4473816;32;20768;-78
2021/12/05 04:33:47;;;;;;;38.35;18.60;;;;;;;5.36;60.26;97497.12;4487962;32;20111;-78
2021/12/05 04:36:12;;;;;;;35.95;18.23;;;;;;;5.46;60.15;97500.94;4473888;32;20076;-78
2021/12/05 04:38:38;;;;;;;35.55;17.98;;;;;;;5.43;60.21;97499.34;4473686;32;20454;-78
2021/12/05 04:41:04;;;;;;;37.03;17.67;;;;;;;5.50;60.03;97492.84;4473742;32;20187;-78
2021/12/05 04:43:37;;;;;;;34.25;18.02;;;;;;;5.48;59.86;97512.97;4487995;32;20156;-78
2021/12/05 04:46:09;;;;;;;35.63;18.12;;;;;;;5.46;59.62;97509.59;4474223;32;20084;-78
2021/12/05 04:48:34;;;;;;;39.40;19.05;;;;;;;5.46;59.82;97506.97;4473569;32;20102;-78
2021/12/05 04:51:00;;;;;;;39.13;18.25;;;;;;;5.56;59.61;97499.47;4487898;32;20138;-78
2021/12/05 04:53:27;;;;;;;37.30;17.70;;;;;;;5.53;59.67;97493.63;4487835;32;20372;-78
2021/12/05 04:55:53;;;;;;;39.17;18.07;;;;;;;5.56;59.63;97496.88;4487851;32;20080;-78
2021/12/05 04:58:19;;;;;;;35.95;17.48;;;;;;;5.61;59.47;97494.84;4473922;32;20084;-78
2021/12/05 05:00:46;;;;;;;37.03;17.58;;;;;;;5.57;59.59;97485.50;4488039;32;20140;-78
2021/12/05 05:03:12;;;;;;;39.33;18.33;;;;;;;5.59;59.69;97478.44;4473904;32;20108;-78
2021/12/05 05:05:41;;;;;;;37.80;18.15;;;;;;;5.62;59.72;97487.84;4473521;32;20107;-78
2021/12/05 05:08:07;;;;;;;37.42;18.33;;;;;;;5.56;59.94;97488.19;4487774;32;20072;-78
2021/12/05 05:10:33;;;;;;;39.58;18.62;;;;;;;5.61;60.00;97500.09;4488052;32;20120;-78
2021/12/05 05:12:59;;;;;;;37.50;18.62;;;;;;;5.61;60.02;97494.84;4473788;32;20100;-78
2021/12/05 05:15:27;;;;;;;36.92;17.35;;;;;;;5.60;60.10;97493.19;4473815;32;20106;-78
2021/12/05 05:17:54;;;;;;;36.15;18.30;;;;;;;5.68;59.92;97487.53;4487682;32;20106;-78
2021/12/05 05:20:30;;;;;;;38.25;18.98;;;;;;;5.67;59.79;97496.28;4473558;32;20470;-78
2021/12/05 05:47:27;;;;;;;43.33;21.02;;;;;;;5.57;60.42;97521.25;4487342;32;20459;-79
2021/12/05 05:49:59;;;;;;;43.08;21.42;;;;;;;5.56;60.30;97525.59;4487473;32;20073;-79
2021/12/05 05:52:28;;;;;;;49.83;20.70;;;;;;;5.57;60.48;97521.25;4474070;32;20143;-79
2021/12/05 05:54:57;;;;;;;46.72;20.08;;;;;;;5.49;60.85;97514.66;4487517;32;20084;-78
2021/12/05 06:00:00;;;;;;;41.25;21.55;;;;;;;5.40;60.87;97509.94;4487432;32;20417;-79
2021/12/05 06:05:11;;;;;;;44.20;20.77;;;;;;;5.48;61.04;97517.34;4475284;32;20118;-78
2021/12/05 06:07:42;;;;;;;39.90;19.40;;;;;;;5.51;61.07;97517.19;4473161;32;20077;-78
2021/12/05 06:10:10;;;;;;;42.17;20.83;;;;;;;5.53;61.08;97525.78;4487441;32;20103;-78
2021/12/05 06:12:36;;;;;;;43.75;20.88;;;;;;;5.53;61.27;97525.78;4487446;32;20093;-78
2021/12/05 06:15:01;;;;;;;45.10;20.90;;;;;;;5.60;61.07;97519.31;4487406;32;20089;-78
2021/12/05 06:17:28;;;;;;;44.00;20.00;;;;;;;5.63;61.01;97523.53;4472994;32;20110;-78
2021/12/05 06:19:54;;;;;;;43.00;21.40;;;;;;;5.60;61.15;97531.50;4487311;32;20098;-78
2021/12/05 06:22:20;;;;;;;42.33;20.42;;;;;;;5.65;61.17;97529.50;4487279;32;20092;-78
2021/12/05 06:24:45;;;;;;;47.88;22.52;;;;;;;5.71;60.67;97524.75;4487305;32;20122;-78
2021/12/05 06:27:11;;;;;;;46.50;21.65;;;;;;;5.66;60.53;97526.81;4487095;32;20105;-78
2021/12/05 06:29:43;;;;;;;50.70;22.87;;;;;;;5.68;60.74;97537.19;4485931;32;20073;-78
2021/12/05 06:32:36;;;;;;;64.68;23.02;;;;;;;5.66;60.96;97531.16;4460726;32;20475;-78
2021/12/05 06:37:48;;;;;;;46.55;21.00;;;;;;;5.59;61.08;97542.91;4487233;32;20229;-79
2021/12/05 06:45:56;;;;;;;44.67;20.52;;;;;;;5.54;61.12;97544.91;4422704;32;20164;-79
2021/12/05 06:48:46;;;;;;;48.13;22.50;;;;;;;5.63;60.73;97537.41;4392264;32;20616;-79
2021/12/05 06:51:14;;;;;;;46.97;20.40;;;;;;;5.60;60.78;97540.22;4392295;32;20087;-76
2021/12/05 06:53:40;;;;;;;;;;;;;;;5.63;60.83;97539.19;4392625;32;20102;-77
2021/12/05 06:56:06;;;;;;;51.42;21.25;;;;;;;5.64;60.62;97535.62;4392378;32;20052;-78
2021/12/05 06:58:34;;;;;;;47.22;21.73;;;;;;;5.62;60.36;97546.19;4379687;32;20110;-78
2021/12/05 07:01:01;;;;;;;54.80;22.90;;;;;;;5.60;60.47;97555.88;4379587;32;20106;-78
2021/12/05 07:03:26;;;;;;;48.83;21.57;;;;;;;5.47;60.67;97560.91;4365866;32;20299;-78
2021/12/05 07:06:02;;;;;;;47.65;21.62;;;;;;;5.58;60.63;97549.91;4380937;32;20254;-77
2021/12/05 07:08:33;;;;;;;46.90;21.40;;;;;;;5.61;60.86;97554.13;4380813;32;20095;-76
2021/12/05 07:11:15;;;;;;;57.00;22.75;;;;;;;5.69;60.81;97560.59;4392230;32;20105;-77
2021/12/05 07:21:41;;;;;;;47.58;21.85;;;;;;;5.85;60.23;97564.97;4437949;32;20081;-77
2021/12/05 07:24:20;;;;;;;52.92;22.00;;;;;;;5.89;60.14;97553.41;4442002;31;20117;-78
2021/12/05 07:40:22;;;;;;;48.60;21.23;;;;;;;6.04;59.86;97564.84;4502523;31;20132;-78
2021/12/05 07:40:27;;;;;;;51.85;21.52;;;;;;;6.01;60.01;97558.03;4490254;31;20471;-78
2021/12/05 07:42:55;;;;;;;72.10;21.70;;;;;;;6.08;59.71;97562.00;4502114;31;20158;-78
2021/12/05 07:45:28;;;;;;;110.28;23.27;;;;;;;6.15;59.44;97559.84;4502004;31;20461;-78
2021/12/05 07:47:55;;;;;;;55.15;21.60;;;;;;;6.09;59.20;97568.88;4502364;31;20152;-78
2021/12/05 07:50:31;;;;;;;55.05;21.70;;;;;;;6.13;59.29;97581.81;4502307;31;20088;-77
2021/12/05 07:53:05;;;;;;;91.60;22.17;;;;;;;5.99;59.66;97583.41;4489041;31;20081;-79
2021/12/05 07:55:37;;;;;;;60.63;20.83;;;;;;;5.91;59.94;97588.19;4502452;31;20529;-77
2021/12/05 08:00:37;;;;;;;51.33;21.00;;;;;;;6.00;60.12;97579.00;4502167;31;20133;-76
2021/12/05 08:16:48;;;;;;;63.03;23.23;;;;;;;6.14;59.76;97586.91;4502057;31;20492;-78
2021/12/05 08:19:14;;;;;;;63.58;24.40;;;;;;;6.15;59.85;97582.56;4488062;31;20092;-79
2021/12/05 08:21:40;;;;;;;54.53;22.40;;;;;;;6.20;59.79;97588.34;4487475;31;20131;-81
2021/12/05 08:24:05;;;;;;;62.65;21.40;;;;;;;6.28;59.51;97589.62;4501722;31;20107;-78
2021/12/05 08:26:33;;;;;;;57.85;21.15;;;;;;;6.32;59.09;97587.69;4501691;31;20076;-78
2021/12/05 08:29:09;;;;;;;72.22;22.77;;;;;;;6.27;59.28;97593.16;4501695;31;20152;-77
2021/12/05 08:36:55;;;;;;;65.35;21.65;;;;;;;6.04;60.20;97593.59;4501687;31;20092;-80
2021/12/05 10:09:29;;;;;;;58.95;20.55;;;;;;;6.22;59.56;97552.50;4469707;32;20473;-77
2021/12/05 10:20:13;;;;;;;48.38;21.52;;;;;;;6.19;60.09;97537.81;4503197;31;20084;-77
2021/12/05 10:34:29;;;;;;;55.78;22.13;;;;;;;6.61;58.72;97546.75;4503114;31;20095;-77
2021/12/05 10:37:30;;;;;;;52.85;21.60;;;;;;;6.71;58.63;97552.28;4490313;31;20084;-78
2021/12/05 10:40:09;;;;;;;52.75;21.90;;;;;;;6.68;58.79;97539.37;4410106;32;20562;-77
2021/12/05 10:42:45;;;;;;;51.72;21.08;;;;;;;6.66;59.08;97536.00;4422889;32;20089;-77
2021/12/05 10:45:28;;;;;;;59.35;22.40;;;;;;;6.64;58.70;97543.94;4410058;32;20090;-77
2021/12/05 10:47:56;;;;;;;47.45;20.58;;;;;;;6.57;58.60;97545.25;4422817;32;20125;-78
2021/12/05 10:50:41;;;;;;;51.63;22.25;;;;;;;6.43;58.63;97539.97;4422839;32;20113;-78
2021/12/05 10:53:31;;;;;;;48.42;19.83;;;;;;;6.12;59.61;97533.03;4410100;32;20182;-78
2021/12/05 10:56:01;;;;;;;51.20;20.48;;;;;;;6.13;59.74;97529.50;4422886;32;20121;-77
2021/12/05 10:58:39;;;;;;;93.60;23.65;;;;;;;5.99;59.93;97531.13;4409865;32;20109;-77
2021/12/05 11:01:22;;;;;;;54.53;20.70;;;;;;;5.50;61.56;97536.41;4422804;32;20427;-78
2021/12/05 11:04:08;;;;;;;91.25;23.10;;;;;;;5.70;61.14;97536.16;4422768;32;20211;-78
2021/12/05 11:06:50;;;;;;;61.20;21.80;;;;;;;5.03;62.95;97531.94;4409903;32;20097;-76
2021/12/05 11:09:32;;;;;;;66.95;22.37;;;;;;;5.47;62.03;97533.97;4410101;32;20119;-78
2021/12/05 11:12:03;;;;;;;49.03;20.05;;;;;;;5.42;62.05;97536.81;4409976;32;20573;-77
2021/12/05 11:14:34;;;;;;;46.37;19.15;;;;;;;5.30;62.54;97524.41;4480724;31;20163;-78
2021/12/05 11:17:14;;;;;;;51.75;20.50;;;;;;;4.76;64.43;97531.63;4487848;31;20568;-77
2021/12/05 11:19:46;;;;;;;48.87;19.65;;;;;;;4.98;64.18;97526.94;4502678;31;20117;-77
2021/12/05 11:22:18;;;;;;;50.47;19.92;;;;;;;5.06;64.13;97518.72;4502684;31;20122;-77
2021/12/05 11:24:53;;;;;;;72.10;20.10;;;;;;;5.27;64.01;97516.75;4502594;31;20143;-77
2021/12/05 11:27:22;;;;;;;67.57;21.95;;;;;;;5.20;63.54;97524.06;4488210;31;20102;-77
2021/12/05 11:30:10;;;;;;;70.72;20.92;;;;;;;5.30;63.05;97525.25;4488083;31;20459;-77
2021/12/05 11:32:49;;;;;;;97.97;22.62;;;;;;;5.08;63.84;97538.63;4488167;31;20091;-77
2021/12/05 11:35:36;;;;;;;60.70;20.62;;;;;;;4.98;64.28;97536.56;4502459;31;20092;-76
2021/12/05 11:38:04;;;;;;;52.33;21.30;;;;;;;4.91;64.62;97533.44;4502525;31;20419;-79
2021/12/05 11:40:49;;;;;;;;;;;;;;;4.99;64.33;97527.81;4502673;31;20084;-78
2021/12/05 11:43:24;;;;;;;65.32;18.80;;;;;;;4.40;66.34;97524.72;4501978;31;19979;-77
2021/12/05 11:46:08;;;;;;;96.45;21.23;;;;;;;4.70;65.60;97520.56;4502255;31;20096;-76
2021/12/05 11:48:40;;;;;;;166.45;27.13;;;;;;;4.91;65.14;97525.59;4502397;31;20148;-76
2021/12/05 11:51:44;;;;;;;48.55;18.95;;;;;;;4.91;64.91;97528.22;4502441;31;20118;-76
2021/12/05 11:54:24;;;;;;;194.30;27.15;;;;;;;5.04;64.80;97523.19;4474999;31;20105;-86
2021/12/05 11:57:11;;;;;;;192.07;26.12;;;;;;;4.71;65.36;97524.87;4502348;31;20080;-76
2021/12/05 11:59:36;;;;;;;75.93;21.52;;;;;;;4.75;65.66;97529.91;4502161;31;20068;-78
2021/12/05 12:02:14;;;;;;;143.05;23.73;;;;;;;4.80;65.39;97526.16;4502025;31;20473;-77
2021/12/05 12:05:13;;;;;;;77.77;21.23;;;;;;;4.95;65.32;97527.12;4502269;31;20114;-76
2021/12/05 12:07:45;;;;;;;167.43;25.52;;;;;;;4.79;65.90;97524.47;4502067;31;20139;-75
2021/12/05 12:10:13;;;;;;;63.60;20.55;;;;;;;4.89;65.74;97520.47;4474574;31;20454;-76
2021/12/05 12:12:42;;;;;;;65.53;21.95;;;;;;;4.92;65.74;97516.84;4502032;31;20123;-77
2021/12/05 12:15:08;;;;;;;116.20;21.85;;;;;;;4.96;65.61;97517.53;4487585;31;20186;-76
2021/12/05 12:17:34;;;;;;;58.13;19.95;;;;;;;5.00;65.17;97508.59;4487804;31;20109;-76
2021/12/05 12:19:59;;;;;;;59.00;19.52;;;;;;;5.05;65.31;97524.87;4474252;31;20084;-76
2021/12/05 12:22:26;;;;;;;83.90;21.17;;;;;;;5.03;64.97;97531.94;4501873;31;20187;-76
2021/12/05 12:24:56;;;;;;;80.22;21.67;;;;;;;4.91;65.49;97538.66;4501844;31;20125;-76
2021/12/05 12:27:22;;;;;;;220.75;27.40;;;;;;;5.01;65.36;97533.78;4487456;31;20080;-76
2021/12/05 12:29:49;;;;;;;139.40;22.20;;;;;;;5.01;65.13;97531.19;4489230;31;20140;-76
2021/12/05 12:32:18;;;;;;;44.67;18.50;;;;;;;5.14;64.56;97521.78;4489543;31;20097;-76
2021/12/05 12:34:44;;;;;;;56.20;19.85;;;;;;;5.11;65.15;97524.56;4489526;31;20111;-76
2021/12/05 12:37:11;;;;;;;62.83;19.35;;;;;;;5.01;65.24;97532.03;4489487;31;20446;-76
2021/12/05 12:39:41;;;;;;;63.13;18.70;;;;;;;4.99;65.39;97520.81;4489406;31;20132;-76
2021/12/05 12:42:25;;;;;;;42.60;17.67;;;;;;;4.98;65.46;97510.44;4489584;31;20131;-76
2021/12/05 12:45:06;;;;;;;65.57;19.85;;;;;;;5.10;65.54;97500.22;4476551;31;20303;-76
2021/12/05 12:47:44;;;;;;;141.25;23.33;;;;;;;5.11;65.70;97508.87;4503778;31;20079;-76
2021/12/05 12:50:36;;;;;;;65.20;19.27;;;;;;;5.15;64.88;97507.78;4489508;31;20072;-76
2021/12/05 12:53:12;;;;;;;53.65;18.35;;;;;;;4.89;65.74;97515.25;4489812;31;20122;-76
2021/12/05 12:55:44;;;;;;;46.63;16.98;;;;;;;4.89;65.42;97507.41;4503724;31;20258;-76
2021/12/05 12:58:11;;;;;;;44.65;17.20;;;;;;;4.60;66.94;97524.56;4476301;31;20083;-75
2021/12/05 13:00:42;;;;;;;46.30;17.52;;;;;;;4.80;66.51;97520.09;4504003;31;20089;-76
2021/12/05 13:03:25;;;;;;;49.80;17.27;;;;;;;4.97;66.12;97508.78;4489874;31;20107;-76
2021/12/05 13:07:20;;;;;;;62.47;17.95;;;;;;;5.13;65.23;97497.44;4504018;31;20114;-76
2021/12/05 13:11:58;;;;;;;61.60;17.85;;;;;;;5.14;65.10;97490.47;4503692;31;20204;-76
2021/12/05 13:14:23;;;;;;;42.15;17.85;;;;;;;5.05;65.37;97493.56;4503519;31;20104;-77
2021/12/05 13:16:49;;;;;;;84.87;18.42;;;;;;;5.15;64.86;97486.06;4489198;31;20340;-76
2021/12/05 13:19:19;;;;;;;111.90;19.52;;;;;;;5.03;65.16;97493.63;4489224;31;20083;-76
2021/12/05 13:21:47;;;;;;;181.18;24.73;;;;;;;4.77;65.85;97500.22;4503617;31;20092;-76
2021/12/05 13:24:32;;;;;;;114.80;20.98;;;;;;;5.11;65.32;97493.22;4503510;31;20096;-77
2021/12/05 13:27:03;;;;;;;42.08;16.90;;;;;;;5.06;65.54;97484.78;4503547;31;20095;-76
2021/12/05 13:29:33;;;;;;;251.90;29.27;;;;;;;5.11;65.61;97490.62;4503617;31;20083;-76
2021/12/05 13:32:06;;;;;;;63.87;18.60;;;;;;;4.85;66.32;97479.78;4503468;31;20545;-77
2021/12/05 13:34:41;;;;;;;102.50;21.62;;;;;;;5.11;66.01;97467.97;4489182;31;20463;-77
2021/12/05 13:37:07;;;;;;;156.25;23.42;;;;;;;5.20;65.85;97461.41;4503555;31;20083;-77
2021/12/05 13:39:38;;;;;;;179.50;26.25;;;;;;;4.79;66.88;97459.25;4503035;31;20114;-77
2021/12/05 13:42:06;;;;;;;282.52;28.42;;;;;;;4.97;66.40;97451.38;4503479;31;20084;-75
2021/12/05 13:44:59;;;;;;;72.25;20.35;;;;;;;4.80;67.00;97447.87;4489149;31;20511;-77
2021/12/05 13:47:29;;;;;;;267.77;28.02;;;;;;;4.69;66.96;97440.63;4503379;31;20685;-78
2021/12/05 13:49:56;;;;;;;77.72;21.12;;;;;;;4.57;67.75;97445.63;4503421;31;20476;-76
2021/12/05 13:52:32;;;;;;;175.62;26.87;;;;;;;4.81;67.47;97439.13;4489044;31;20121;-79
2021/12/05 13:55:36;;;;;;;78.93;21.50;;;;;;;4.76;67.97;97429.88;4503293;31;20462;-79
2021/12/05 13:58:36;;;;;;;59.80;19.33;;;;;;;4.90;67.55;97440.41;4503586;31;20114;-79
2021/12/05 14:01:01;;;;;;;60.65;19.77;;;;;;;5.07;67.25;97466.44;4503376;31;20084;-79
2021/12/05 14:03:54;;;;;;;62.53;19.67;;;;;;;5.21;66.90;97476.13;4488814;31;20079;-78
2021/12/05 14:06:41;;;;;;;56.88;19.50;;;;;;;5.37;66.38;97457.03;4503281;31;20107;-79
2021/12/05 14:09:18;;;;;;;57.28;19.33;;;;;;;5.29;66.51;97470.50;4503231;31;20161;-79
2021/12/05 14:12:06;;;;;;;58.72;21.95;;;;;;;5.41;66.30;97464.63;4488957;31;20076;-77
2021/12/05 14:14:37;;;;;;;152.93;24.73;;;;;;;5.45;66.19;97484.41;4503225;31;20494;-78
2021/12/05 14:17:16;;;;;;;313.02;37.80;;;;;;;5.57;65.77;97482.06;4503143;31;20118;-78
2021/12/05 14:19:46;;;;;;;391.67;39.53;;;;;;;5.38;66.13;97483.06;4503286;31;20083;-77
2021/12/05 14:22:14;;;;;;;106.57;22.75;;;;;;;5.42;66.00;97486.34;4488767;31;20084;-78
2021/12/05 14:24:43;;;;;;;84.93;22.58;;;;;;;5.35;66.19;97480.63;4488982;31;20079;-77
2021/12/05 14:27:14;;;;;;;118.95;23.90;;;;;;;5.43;65.98;97488.06;4503236;31;20110;-77
2021/12/05 14:29:41;;;;;;;162.75;27.42;;;;;;;5.44;65.87;97481.88;4503491;31;20164;-77
2021/12/05 14:32:10;;;;;;;173.27;27.00;;;;;;;5.18;66.51;97478.94;4488942;31;20118;-77
2021/12/05 14:34:37;;;;;;;226.10;29.92;;;;;;;5.19;66.59;97485.81;4502961;31;20119;-79
2021/12/05 14:37:12;;;;;;;156.10;25.27;;;;;;;5.12;67.00;97492.31;4493964;31;20092;-78
2021/12/05 14:39:43;;;;;;;400.38;39.92;;;;;;;5.13;67.14;97497.44;4493625;31;20105;-77
2021/12/05 14:42:17;;;;;;;173.60;26.27;;;;;;;5.10;67.32;97500.22;4492807;31;20095;-83
2021/12/05 14:44:46;;;;;;;424.67;40.45;;;;;;;5.14;67.05;97500.91;4489410;31;20157;-77
2021/12/05 14:47:15;;;;;;;99.78;20.50;;;;;;;5.01;67.47;97503.31;4496558;31;20076;-81
2021/12/05 14:49:44;;;;;;;321.50;31.95;;;;;;;5.00;67.65;97501.59;4481181;31;20126;-80
2021/12/05 14:52:14;;;;;;;153.05;25.77;;;;;;;4.88;68.11;97505.72;4489522;31;20295;-80
2021/12/05 14:54:40;;;;;;;103.30;22.55;;;;;;;4.78;68.69;97512.34;4495611;31;20101;-80
2021/12/05 14:57:08;;;;;;;225.98;29.23;;;;;;;4.86;68.31;97510.16;4483090;32;20109;-80
2021/12/05 14:59:34;;;;;;;74.55;20.92;;;;;;;4.48;70.14;97510.38;4494699;31;20478;-80
2021/12/05 15:02:00;;;;;;;82.95;20.98;;;;;;;4.60;69.87;97515.91;4478908;31;20068;-79
2021/12/05 15:04:32;;;;;;;114.72;22.35;;;;;;;4.56;70.16;97515.22;4480131;32;20132;-79
2021/12/05 15:06:58;;;;;;;94.57;20.98;;;;;;;4.64;69.92;97509.59;4480853;32;20105;-78
2021/12/05 15:09:53;;;;;;;240.60;31.45;;;;;;;4.33;70.81;97514.59;4493220;31;20352;-80
2021/12/05 15:12:23;;;;;;;162.02;25.23;;;;;;;4.70;70.12;97512.72;4475180;32;20100;-78
2021/12/05 15:14:52;;;;;;;125.18;22.77;;;;;;;4.80;69.67;97509.66;4478894;31;20483;-80
2021/12/05 15:17:30;;;;;;;96.90;22.02;;;;;;;4.55;70.58;97516.13;4477408;31;20472;-81
2021/12/05 15:20:04;;;;;;;111.30;24.45;;;;;;;4.71;70.21;97516.19;4463934;32;20751;-80
2021/12/05 15:22:29;;;;;;;259.60;30.52;;;;;;;4.53;70.80;97513.59;4475785;31;20165;-80
2021/12/05 15:25:07;;;;;;;170.20;26.80;;;;;;;4.65;69.89;97514.72;4483822;32;20085;-80
2021/12/05 15:27:33;;;;;;;301.12;31.30;;;;;;;4.59;69.96;97509.81;4479890;31;20365;-81
2021/12/05 15:30:12;;;;;;;209.32;27.05;;;;;;;4.37;70.82;97510.06;4491614;31;20080;-80
2021/12/05 15:32:38;;;;;;;171.52;23.90;;;;;;;4.53;70.68;97510.97;4474673;31;20092;-81
2021/12/05 15:35:10;;;;;;;339.67;32.58;;;;;;;4.62;70.29;97512.28;4482910;32;20110;-80
2021/12/05 15:37:35;;;;;;;102.40;22.37;;;;;;;4.63;70.06;97492.25;4480162;31;20113;-81
2021/12/05 15:40:05;;;;;;;259.37;31.50;;;;;;;4.60;70.21;97495.88;4490783;31;20454;-81
2021/12/05 15:42:33;;;;;;;92.90;23.33;;;;;;;4.21;71.99;97501.31;4498972;31;20387;-81
2021/12/05 15:45:03;;;;;;;255.30;32.70;;;;;;;4.53;70.76;97500.53;4490295;31;20136;-80
2021/12/05 15:47:31;;;;;;;335.33;33.83;;;;;;;4.33;70.92;97501.56;4466985;32;20164;-81
2021/12/05 15:50:07;;;;;;;234.82;28.77;;;;;;;4.06;72.18;97516.81;4482335;31;20104;-80
2021/12/05 15:52:32;;;;;;;102.87;22.83;;;;;;;4.13;72.47;97518.19;4474446;31;20492;-81
2021/12/05 15:54:58;;;;;;;157.48;25.80;;;;;;;4.46;71.18;97513.97;4497367;31;20089;-83
2021/12/05 15:57:31;;;;;;;136.80;25.15;;;;;;;4.25;72.10;97513.28;4478503;31;20170;-83
2021/12/05 15:59:59;;;;;;;189.35;27.73;;;;;;;4.39;71.80;97510.84;4477091;32;20096;-84
2021/12/05 16:02:25;;;;;;;324.23;37.30;;;;;;;4.50;71.63;97512.88;4471969;31;20084;-82
2021/12/05 16:04:51;;;;;;;196.57;28.00;;;;;;;4.22;72.49;97503.03;4477082;31;20110;-85
2021/12/05 16:07:17;;;;;;;258.95;31.60;;;;;;;4.40;72.25;97507.28;4469854;32;20101;-84
2021/12/05 16:09:44;;;;;;;231.63;29.55;;;;;;;4.29;72.45;97501.81;4496524;31;20459;-83
2021/12/05 16:12:19;;;;;;;171.77;27.62;;;;;;;4.41;71.96;97508.16;4491259;31;20455;-80
2021/12/05 16:14:49;;;;;;;78.37;22.40;;;;;;;4.53;71.70;97510.13;4487403;32;20144;-79
2021/12/05 16:17:22;;;;;;;180.98;27.05;;;;;;;4.65;71.13;97516.50;4483250;32;20472;-78
2021/12/05 16:20:45;;;;;;;202.57;28.17;;;;;;;4.56;71.41;97510.00;4497194;31;20122;-80
2021/12/05 16:23:20;;;;;;;129.02;23.73;;;;;;;4.53;71.49;97504.94;4410990;32;20098;-79
2021/12/05 16:25:56;;;;;;;155.48;25.35;;;;;;;4.59;71.05;97512.44;4414215;32;20163;-80
2021/12/05 16:28:26;;;;;;;243.27;27.75;;;;;;;4.66;70.73;97516.44;4420515;32;20106;-79
2021/12/05 16:31:01;;;;;;;135.30;23.50;;;;;;;4.51;70.53;97520.66;4397780;32;20164;-79
2021/12/05 16:33:29;;;;;;;155.18;24.25;;;;;;;4.46;70.73;97527.88;4414953;32;20389;-79
2021/12/05 16:35:55;;;;;;;73.70;21.23;;;;;;;4.50;71.09;97533.75;4423213;32;20159;-79
2021/12/05 16:38:34;;;;;;;160.93;23.87;;;;;;;4.46;71.77;97533.09;4397785;32;20094;-79
2021/12/05 16:41:07;;;;;;;100.60;20.05;;;;;;;4.41;70.91;97548.09;4418977;32;20236;-80
2021/12/05 16:43:36;;;;;;;113.15;21.12;;;;;;;4.24;71.73;97558.53;4415586;32;20480;-79
2021/12/05 16:46:05;;;;;;;108.87;22.95;;;;;;;4.43;71.35;97558.47;4396914;32;20105;-78
2021/12/05 16:48:31;;;;;;;115.50;21.60;;;;;;;4.38;71.08;97548.25;4405208;32;20102;-79
2021/12/05 16:51:10;;;;;;;85.80;21.52;;;;;;;4.54;71.16;97530.09;4396614;32;20122;-79
2021/12/05 16:53:40;;;;;;;63.55;18.67;;;;;;;4.49;71.35;97532.91;4422234;32;20103;-79
2021/12/05 16:56:06;;;;;;;86.75;19.80;;;;;;;4.64;71.07;97544.34;4467744;32;20099;-80
2021/12/05 16:58:31;;;;;;;75.57;19.45;;;;;;;4.34;71.73;97541.50;4457491;32;20109;-80
2021/12/05 17:00:57;;;;;;;53.40;18.33;;;;;;;4.57;70.92;97540.34;4466566;32;20390;-80
2021/12/05 17:03:25;;;;;;;60.28;19.17;;;;;;;4.70;70.50;97544.03;4462877;32;20111;-79
2021/12/05 17:05:54;;;;;;;61.00;18.40;;;;;;;4.79;70.39;97547.09;4461826;32;20150;-79
2021/12/05 17:08:20;;;;;;;61.55;18.25;;;;;;;4.90;69.98;97545.63;4454796;32;20119;-80
2021/12/05 17:11:02;;;;;;;70.68;20.25;;;;;;;4.98;68.75;97544.38;4468882;32;20129;-86
2021/12/05 17:13:28;;;;;;;46.88;18.08;;;;;;;4.51;70.13;97541.50;4448840;32;20556;-84
2021/12/05 17:15:59;;;;;;;52.75;16.95;;;;;;;4.67;70.22;97545.94;4460181;32;20085;-84
2021/12/05 17:18:29;;;;;;;57.28;17.10;;;;;;;4.81;69.54;97546.09;4468856;32;20515;-84